Terminal Aerodrome Forecast
Issued by NWS Austin/San Antonio, TX

Home | Current Version | Previous Version | Text Only | Print | Product List | Glossary On
Versions: 1 2 3 4 5 6 7 8 9 10 11 12 13 14
000
FTUS44 KEWX 281724
TAFDRT
TAF
KDRT 281724Z 2818/2918 14011KT P6SM FEW060
     FM290200 11010KT P6SM SKC
      TEMPO 2910/2914 BKN015
     FM291500 14012KT P6SM SCT030=

USA.gov is the U.S. government's official web portal to all federal, state and local government web resources and services.